sensor_id;sensor_type;location;lat;lon;timestamp;pressure;altitude;pressure_sealevel;temperature;humidity
60583;BME280;46415;47.536;19.066;2023-07-24T00:01:47;-18846.19;;;22.82;99.59
60583;BME280;46415;47.536;19.066;2023-07-24T00:04:50;-18846.31;;;22.83;99.44
60583;BME280;46415;47.536;19.066;2023-07-24T00:07:52;-18847.28;;;22.86;98.52
60583;BME280;46415;47.536;19.066;2023-07-24T00:10:55;-18846.19;;;22.82;99.55
60583;BME280;46415;47.536;19.066;2023-07-24T00:13:57;-18845.38;;;22.79;99.96
60583;BME280;46415;47.536;19.066;2023-07-24T00:17:00;-18845.38;;;22.79;100.00
60583;BME280;46415;47.536;19.066;2023-07-24T00:20:02;-18844.56;;;22.76;100.00
60583;BME280;46415;47.536;19.066;2023-07-24T00:23:05;-18844.03;;;22.74;100.00
60583;BME280;46415;47.536;19.066;2023-07-24T00:26:08;-18843.91;;;22.73;100.00
60583;BME280;46415;47.536;19.066;2023-07-24T00:29:10;-18844.97;;;22.77;100.00
60583;BME280;46415;47.536;19.066;2023-07-24T00:32:13;-18845.25;;;22.78;100.00
60583;BME280;46415;47.536;19.066;2023-07-24T00:35:15;-18845.66;;;22.80;100.00
60583;BME280;46415;47.536;19.066;2023-07-24T00:38:18;-18844.56;;;22.76;100.00
60583;BME280;46415;47.536;19.066;2023-07-24T00:41:22;-18843.63;;;22.72;100.00
60583;BME280;46415;47.536;19.066;2023-07-24T00:44:25;-18843.47;;;22.72;100.00
60583;BME280;46415;47.536;19.066;2023-07-24T00:47:31;-18844.69;;;22.76;100.00
60583;BME280;46415;47.536;19.066;2023-07-24T00:50:34;-18845.09;;;22.78;100.00
60583;BME280;46415;47.536;19.066;2023-07-24T00:53:38;-18847.94;;;22.89;100.00
60583;BME280;46415;47.536;19.066;2023-07-24T00:56:41;-18850.66;;;22.99;100.00
60583;BME280;46415;47.536;19.066;2023-07-24T00:59:44;-18850.13;;;22.97;100.00
60583;BME280;46415;47.536;19.066;2023-07-24T01:02:46;-18848.34;;;22.90;100.00
60583;BME280;46415;47.536;19.066;2023-07-24T01:05:50;-18846.59;;;22.84;100.00
60583;BME280;46415;47.536;19.066;2023-07-24T01:08:52;-18847.00;;;22.85;100.00
60583;BME280;46415;47.536;19.066;2023-07-24T01:15:31;-18846.72;;;22.84;100.00
60583;BME280;46415;47.536;19.066;2023-07-24T01:18:35;-18845.94;;;22.81;100.00
60583;BME280;46415;47.536;19.066;2023-07-24T01:21:44;-18846.19;;;22.82;100.00
60583;BME280;46415;47.536;19.066;2023-07-24T01:27:53;-18844.31;;;22.75;100.00
60583;BME280;46415;47.536;19.066;2023-07-24T01:30:56;-18844.56;;;22.76;100.00
60583;BME280;46415;47.536;19.066;2023-07-24T01:33:59;-18844.03;;;22.74;100.00
60583;BME280;46415;47.536;19.066;2023-07-24T01:37:02;-18844.03;;;22.74;100.00
60583;BME280;46415;47.536;19.066;2023-07-24T01:40:05;-18840.38;;;22.60;100.00
60583;BME280;46415;47.536;19.066;2023-07-24T01:43:09;-18838.06;;;22.52;100.00
60583;BME280;46415;47.536;19.066;2023-07-24T01:46:11;-18838.87;;;22.55;100.00
60583;BME280;46415;47.536;19.066;2023-07-24T01:49:14;-18835.34;;;22.42;100.00
60583;BME280;46415;47.536;19.066;2023-07-24T01:52:19;-18835.34;;;22.42;100.00
60583;BME280;46415;47.536;19.066;2023-07-24T01:55:21;-18835.34;;;22.42;100.00
60583;BME280;46415;47.536;19.066;2023-07-24T01:58:24;-18832.91;;;22.32;100.00
60583;BME280;46415;47.536;19.066;2023-07-24T02:01:26;-18831.84;;;22.28;100.00
60583;BME280;46415;47.536;19.066;2023-07-24T02:04:29;-18830.88;;;22.25;100.00
60583;BME280;46415;47.536;19.066;2023-07-24T02:07:31;-18829.41;;;22.19;100.00
60583;BME280;46415;47.536;19.066;2023-07-24T02:10:36;-18827.22;;;22.11;100.00
60583;BME280;46415;47.536;19.066;2023-07-24T02:13:39;-18826.69;;;22.09;100.00
60583;BME280;46415;47.536;19.066;2023-07-24T02:16:41;-18826.97;;;22.10;100.00
60583;BME280;46415;47.536;19.066;2023-07-24T02:19:44;-18825.88;;;22.06;100.00
60583;BME280;46415;47.536;19.066;2023-07-24T02:22:47;-18826.28;;;22.08;100.00
60583;BME280;46415;47.536;19.066;2023-07-24T02:25:52;-18828.31;;;22.15;100.00
60583;BME280;46415;47.536;19.066;2023-07-24T02:28:57;-18824.94;;;22.03;100.00
60583;BME280;46415;47.536;19.066;2023-07-24T02:32:00;-18823.31;;;21.96;100.00
60583;BME280;46415;47.536;19.066;2023-07-24T02:35:03;-18823.16;;;21.96;100.00
60583;BME280;46415;47.536;19.066;2023-07-24T02:38:05;-18823.16;;;21.96;100.00
60583;BME280;46415;47.536;19.066;2023-07-24T02:41:08;-18823.56;;;21.97;100.00
60583;BME280;46415;47.536;19.066;2023-07-24T02:44:10;-18819.78;;;21.83;100.00
60583;BME280;46415;47.536;19.066;2023-07-24T02:47:13;-18819.63;;;21.83;100.00
60583;BME280;46415;47.536;19.066;2023-07-24T02:50:15;-18819.63;;;21.83;100.00
60583;BME280;46415;47.536;19.066;2023-07-24T02:53:18;-18818.00;;;21.77;100.00
60583;BME280;46415;47.536;19.066;2023-07-24T02:56:21;-18816.66;;;21.72;100.00
60583;BME280;46415;47.536;19.066;2023-07-24T02:59:24;-18817.47;;;21.75;100.00
60583;BME280;46415;47.536;19.066;2023-07-24T03:02:26;-18820.03;;;21.84;100.00
60583;BME280;46415;47.536;19.066;2023-07-24T03:05:29;-18819.78;;;21.83;100.00
60583;BME280;46415;47.536;19.066;2023-07-24T03:08:32;-18818.56;;;21.79;100.00
60583;BME280;46415;47.536;19.066;2023-07-24T03:11:35;-18820.19;;;21.85;100.00
60583;BME280;46415;47.536;19.066;2023-07-24T03:14:37;-18819.50;;;21.82;100.00
60583;BME280;46415;47.536;19.066;2023-07-24T03:17:40;-18817.88;;;21.76;100.00
60583;BME280;46415;47.536;19.066;2023-07-24T03:20:42;-18816.94;;;21.73;100.00
60583;BME280;46415;47.536;19.066;2023-07-24T03:23:45;-18815.03;;;21.66;100.00
60583;BME280;46415;47.536;19.066;2023-07-24T03:26:47;-18815.56;;;21.68;100.00
60583;BME280;46415;47.536;19.066;2023-07-24T03:29:50;-18813.94;;;21.62;100.00
60583;BME280;46415;47.536;19.066;2023-07-24T03:32:53;-18815.03;;;21.66;100.00
60583;BME280;46415;47.536;19.066;2023-07-24T03:35:56;-18813.00;;;21.58;100.00
60583;BME280;46415;47.536;19.066;2023-07-24T03:38:58;-18811.91;;;21.54;100.00
60583;BME280;46415;47.536;19.066;2023-07-24T03:42:01;-18812.03;;;21.54;100.00
60583;BME280;46415;47.536;19.066;2023-07-24T03:45:03;-18812.03;;;21.54;100.00
60583;BME280;46415;47.536;19.066;2023-07-24T03:48:06;-18811.50;;;21.52;100.00
60583;BME280;46415;47.536;19.066;2023-07-24T03:51:09;-18811.50;;;21.52;100.00
60583;BME280;46415;47.536;19.066;2023-07-24T03:54:11;-18810.41;;;21.48;100.00
60583;BME280;46415;47.536;19.066;2023-07-24T03:57:14;-18810.41;;;21.48;100.00
60583;BME280;46415;47.536;19.066;2023-07-24T04:00:17;-18810.41;;;21.48;100.00
60583;BME280;46415;47.536;19.066;2023-07-24T04:03:20;-18811.50;;;21.52;100.00
60583;BME280;46415;47.536;19.066;2023-07-24T04:06:23;-18813.13;;;21.58;100.00
60583;BME280;46415;47.536;19.066;2023-07-24T04:09:25;-18818.00;;;21.77;100.00
60583;BME280;46415;47.536;19.066;2023-07-24T04:12:28;-18819.91;;;21.84;100.00
60583;BME280;46415;47.536;19.066;2023-07-24T04:15:31;-18819.38;;;21.82;100.00
60583;BME280;46415;47.536;19.066;2023-07-24T04:18:34;-18819.78;;;21.83;100.00
60583;BME280;46415;47.536;19.066;2023-07-24T04:21:36;-18821.13;;;21.88;100.00
60583;BME280;46415;47.536;19.066;2023-07-24T04:24:39;-18820.03;;;21.84;100.00
60583;BME280;46415;47.536;19.066;2023-07-24T04:27:41;-18821.00;;;21.88;100.00
60583;BME280;46415;47.536;19.066;2023-07-24T04:30:44;-18823.31;;;21.96;100.00
60583;BME280;46415;47.536;19.066;2023-07-24T04:33:46;-18823.97;;;21.99;100.00
60583;BME280;46415;47.536;19.066;2023-07-24T04:36:49;-18827.09;;;22.11;100.00
60583;BME280;46415;47.536;19.066;2023-07-24T04:39:51;-18829.53;;;22.20;100.00
60583;BME280;46415;47.536;19.066;2023-07-24T04:42:54;-18831.44;;;22.27;100.00
60583;BME280;46415;47.536;19.066;2023-07-24T04:45:56;-18832.78;;;22.32;100.00
60583;BME280;46415;47.536;19.066;2023-07-24T04:48:59;-18837.25;;;22.49;100.00
60583;BME280;46415;47.536;19.066;2023-07-24T04:52:01;-18838.19;;;22.52;100.00
60583;BME280;46415;47.536;19.066;2023-07-24T04:55:04;-18841.84;;;22.66;100.00
60583;BME280;46415;47.536;19.066;2023-07-24T04:58:06;-18843.75;;;22.73;100.00
60583;BME280;46415;47.536;19.066;2023-07-24T05:01:09;-18844.69;;;22.76;100.00
60583;BME280;46415;47.536;19.066;2023-07-24T05:04:11;-18846.59;;;22.84;100.00
60583;BME280;46415;47.536;19.066;2023-07-24T05:07:14;-18848.34;;;22.90;100.00
60583;BME280;46415;47.536;19.066;2023-07-24T05:10:17;-18852.16;;;23.04;100.00
60583;BME280;46415;47.536;19.066;2023-07-24T05:13:19;-18855.66;;;23.17;100.00
60583;BME280;46415;47.536;19.066;2023-07-24T05:16:22;-18858.50;;;23.28;100.00
60583;BME280;46415;47.536;19.066;2023-07-24T05:19:25;-18862.44;;;23.43;100.00
60583;BME280;46415;47.536;19.066;2023-07-24T05:22:27;-18863.25;;;23.46;100.00
60583;BME280;46415;47.536;19.066;2023-07-24T05:25:30;-18863.25;;;23.46;100.00
60583;BME280;46415;47.536;19.066;2023-07-24T05:28:32;-18866.63;;;23.58;100.00
60583;BME280;46415;47.536;19.066;2023-07-24T05:31:35;-18867.03;;;23.60;100.00
60583;BME280;46415;47.536;19.066;2023-07-24T05:34:38;-18868.53;;;23.66;100.00
60583;BME280;46415;47.536;19.066;2023-07-24T05:37:41;-18872.19;;;23.79;100.00
60583;BME280;46415;47.536;19.066;2023-07-24T05:40:43;-18875.16;;;23.90;100.00
60583;BME280;46415;47.536;19.066;2023-07-24T05:43:46;-18878.13;;;24.01;100.00
60583;BME280;46415;47.536;19.066;2023-07-24T05:46:48;-18880.03;;;24.09;99.84
60583;BME280;46415;47.536;19.066;2023-07-24T05:49:51;-18880.69;;;24.11;99.37
60583;BME280;46415;47.536;19.066;2023-07-24T05:52:54;-18883.81;;;24.23;98.92
60583;BME280;46415;47.536;19.066;2023-07-24T05:56:00;-18890.03;;;24.46;97.17
60583;BME280;46415;47.536;19.066;2023-07-24T05:59:02;-18883.53;;;24.22;99.34
60583;BME280;46415;47.536;19.066;2023-07-24T06:02:05;-18882.72;;;24.19;98.79
60583;BME280;46415;47.536;19.066;2023-07-24T06:05:08;-18886.25;;;24.32;98.83
60583;BME280;46415;47.536;19.066;2023-07-24T06:08:10;-18890.16;;;24.47;98.17
60583;BME280;46415;47.536;19.066;2023-07-24T06:11:14;-18890.84;;;24.49;98.38
60583;BME280;46415;47.536;19.066;2023-07-24T06:14:16;-18897.06;;;24.72;96.60
60583;BME280;46415;47.536;19.066;2023-07-24T06:17:19;-18901.25;;;24.88;95.84
60583;BME280;46415;47.536;19.066;2023-07-24T06:20:21;-18901.78;;;24.90;96.45
60583;BME280;46415;47.536;19.066;2023-07-24T06:23:24;-18907.59;;;25.12;95.32
60583;BME280;46415;47.536;19.066;2023-07-24T06:26:26;-18908.00;;;25.13;94.03
60583;BME280;46415;47.536;19.066;2023-07-24T06:29:29;-18909.22;;;25.18;93.76
60583;BME280;46415;47.536;19.066;2023-07-24T06:32:32;-18911.38;;;25.26;93.64
60583;BME280;46415;47.536;19.066;2023-07-24T06:35:35;-18912.31;;;25.30;93.98
60583;BME280;46415;47.536;19.066;2023-07-24T06:38:37;-18910.44;;;25.23;93.68
60583;BME280;46415;47.536;19.066;2023-07-24T06:41:40;-18915.03;;;25.40;93.36
60583;BME280;46415;47.536;19.066;2023-07-24T06:44:42;-18919.47;;;25.56;91.73
60583;BME280;46415;47.536;19.066;2023-07-24T06:47:45;-18921.22;;;25.63;91.25
60583;BME280;46415;47.536;19.066;2023-07-24T06:50:47;-18919.47;;;25.56;91.90
60583;BME280;46415;47.536;19.066;2023-07-24T06:53:50;-18916.38;;;25.45;93.08
60583;BME280;46415;47.536;19.066;2023-07-24T06:56:53;-18913.41;;;25.34;93.61
60583;BME280;46415;47.536;19.066;2023-07-24T06:59:55;-18911.91;;;25.28;94.44
60583;BME280;46415;47.536;19.066;2023-07-24T07:02:58;-18910.28;;;25.22;94.76
60583;BME280;46415;47.536;19.066;2023-07-24T07:06:00;-18917.72;;;25.50;93.60
60583;BME280;46415;47.536;19.066;2023-07-24T07:09:03;-18925.97;;;25.81;92.53
60583;BME280;46415;47.536;19.066;2023-07-24T07:12:07;-18931.91;;;26.03;94.40
60583;BME280;46415;47.536;19.066;2023-07-24T07:15:10;-18935.53;;;26.17;91.06
60583;BME280;46415;47.536;19.066;2023-07-24T07:18:12;-18937.03;;;26.22;90.39
60583;BME280;46415;47.536;19.066;2023-07-24T07:21:17;-18940.53;;;26.35;89.54
60583;BME280;46415;47.536;19.066;2023-07-24T07:24:20;-18944.84;;;26.52;89.37
60583;BME280;46415;47.536;19.066;2023-07-24T07:27:22;-18947.28;;;26.61;88.33
60583;BME280;46415;47.536;19.066;2023-07-24T07:30:25;-18949.84;;;26.70;87.43
60583;BME280;46415;47.536;19.066;2023-07-24T07:33:27;-18952.81;;;26.81;88.39
60583;BME280;46415;47.536;19.066;2023-07-24T07:36:31;-18954.03;;;26.86;87.78
60583;BME280;46415;47.536;19.066;2023-07-24T07:39:34;-18957.13;;;26.98;86.47
60583;BME280;46415;47.536;19.066;2023-07-24T07:42:37;-18958.06;;;27.01;85.76
60583;BME280;46415;47.536;19.066;2023-07-24T07:45:41;-18962.78;;;27.19;85.75
60583;BME280;46415;47.536;19.066;2023-07-24T07:48:44;-18966.41;;;27.33;84.05
60583;BME280;46415;47.536;19.066;2023-07-24T07:51:48;-18969.38;;;27.44;83.31
60583;BME280;46415;47.536;19.066;2023-07-24T07:54:51;-18971.41;;;27.51;83.85
60583;BME280;46415;47.536;19.066;2023-07-24T07:57:53;-18975.59;;;27.67;82.64
60583;BME280;46415;47.536;19.066;2023-07-24T08:00:55;-18980.84;;;27.87;79.87
60583;BME280;46415;47.536;19.066;2023-07-24T08:03:58;-18986.22;;;28.07;79.46
60583;BME280;46415;47.536;19.066;2023-07-24T08:07:01;-18994.16;;;28.37;77.79
60583;BME280;46415;47.536;19.066;2023-07-24T08:10:04;-18996.84;;;28.47;78.00
60583;BME280;46415;47.536;19.066;2023-07-24T08:13:07;-18998.87;;;28.55;75.58
60583;BME280;46415;47.536;19.066;2023-07-24T08:16:15;-19007.63;;;28.88;74.71
60583;BME280;46415;47.536;19.066;2023-07-24T08:19:21;-19006.81;;;28.85;73.24
60583;BME280;46415;47.536;19.066;2023-07-24T08:22:24;-19012.19;;;29.05;72.32
60583;BME280;46415;47.536;19.066;2023-07-24T08:25:26;-19012.47;;;29.06;70.91
60583;BME280;46415;47.536;19.066;2023-07-24T08:28:29;-19017.84;;;29.26;70.26
60583;BME280;46415;47.536;19.066;2023-07-24T08:31:32;-19022.53;;;29.44;68.51
60583;BME280;46415;47.536;19.066;2023-07-24T08:34:34;-19019.19;;;29.31;67.83
60583;BME280;46415;47.536;19.066;2023-07-24T08:37:37;-19019.72;;;29.33;67.60
60583;BME280;46415;47.536;19.066;2023-07-24T08:40:39;-19024.28;;;29.50;68.82
60583;BME280;46415;47.536;19.066;2023-07-24T08:43:42;-19029.41;;;29.70;66.96
60583;BME280;46415;47.536;19.066;2023-07-24T08:46:45;-19031.56;;;29.78;67.76
60583;BME280;46415;47.536;19.066;2023-07-24T08:49:49;-19029.53;;;29.70;66.73
60583;BME280;46415;47.536;19.066;2023-07-24T08:52:53;-19022.69;;;29.44;67.55
60583;BME280;46415;47.536;19.066;2023-07-24T08:55:56;-19030.34;;;29.73;65.25
60583;BME280;46415;47.536;19.066;2023-07-24T08:58:59;-19035.31;;;29.92;63.94
60583;BME280;46415;47.536;19.066;2023-07-24T09:02:01;-19039.47;;;30.08;64.40
60583;BME280;46415;47.536;19.066;2023-07-24T09:05:04;-19040.28;;;30.11;62.61
60583;BME280;46415;47.536;19.066;2023-07-24T09:08:07;-19035.59;;;29.93;62.65
60583;BME280;46415;47.536;19.066;2023-07-24T09:11:10;-19039.22;;;30.07;64.53
60583;BME280;46415;47.536;19.066;2023-07-24T09:14:23;-19048.59;;;30.42;61.37
60583;BME280;46415;47.536;19.066;2023-07-24T09:17:25;-19057.06;;;30.74;58.62
60583;BME280;46415;47.536;19.066;2023-07-24T09:20:37;-19059.34;;;30.82;56.58
60583;BME280;46415;47.536;19.066;2023-07-24T09:23:39;-19061.63;;;30.91;56.78
60583;BME280;46415;47.536;19.066;2023-07-24T09:26:46;-19063.25;;;30.97;56.41
60583;BME280;46415;47.536;19.066;2023-07-24T09:29:49;-19068.63;;;31.17;53.59
60583;BME280;46415;47.536;19.066;2023-07-24T09:32:52;-19066.34;;;31.09;54.18
60583;BME280;46415;47.536;19.066;2023-07-24T09:35:59;-19071.28;;;31.28;53.50
60583;BME280;46415;47.536;19.066;2023-07-24T09:39:02;-19071.84;;;31.30;52.60
60583;BME280;46415;47.536;19.066;2023-07-24T09:42:08;-19072.91;;;31.34;51.23
60583;BME280;46415;47.536;19.066;2023-07-24T09:45:10;-19076.66;;;31.48;51.23
60583;BME280;46415;47.536;19.066;2023-07-24T09:48:14;-19084.84;;;31.79;50.66
60583;BME280;46415;47.536;19.066;2023-07-24T09:51:36;-19081.50;;;31.66;50.66
60583;BME280;46415;47.536;19.066;2023-07-24T09:54:43;-19079.87;;;31.60;49.79
60583;BME280;46415;47.536;19.066;2023-07-24T09:57:51;-19078.25;;;31.54;48.51
60583;BME280;46415;47.536;19.066;2023-07-24T10:00:55;-19074.25;;;31.39;49.29
60583;BME280;46415;47.536;19.066;2023-07-24T10:03:59;-19080.28;;;31.61;49.83
60583;BME280;46415;47.536;19.066;2023-07-24T10:07:02;-19087.78;;;31.90;47.74
60583;BME280;46415;47.536;19.066;2023-07-24T10:10:05;-19092.47;;;32.08;46.10
60583;BME280;46415;47.536;19.066;2023-07-24T10:13:09;-19100.53;;;32.38;45.91
60583;BME280;46415;47.536;19.066;2023-07-24T10:16:13;-19105.75;;;32.58;44.93
60583;BME280;46415;47.536;19.066;2023-07-24T10:19:16;-19112.31;;;32.83;44.21
60583;BME280;46415;47.536;19.066;2023-07-24T10:22:19;-19116.31;;;32.98;43.41
60583;BME280;46415;47.536;19.066;2023-07-24T10:25:28;-19104.00;;;32.51;42.85
60583;BME280;46415;47.536;19.066;2023-07-24T10:28:34;-19105.47;;;32.57;41.08
60583;BME280;46415;47.536;19.066;2023-07-24T10:31:51;-19110.31;;;32.75;41.25
60583;BME280;46415;47.536;19.066;2023-07-24T10:34:58;-19119.25;;;33.09;40.89
60583;BME280;46415;47.536;19.066;2023-07-24T10:38:01;-19123.56;;;33.25;40.25
60583;BME280;46415;47.536;19.066;2023-07-24T10:41:05;-19115.91;;;32.96;40.61
60583;BME280;46415;47.536;19.066;2023-07-24T10:44:08;-19110.03;;;32.74;40.10
60583;BME280;46415;47.536;19.066;2023-07-24T10:47:10;-19107.75;;;32.65;40.32
60583;BME280;46415;47.536;19.066;2023-07-24T10:50:13;-19114.44;;;32.91;40.02
60583;BME280;46415;47.536;19.066;2023-07-24T10:53:17;-19114.59;;;32.91;40.46
60583;BME280;46415;47.536;19.066;2023-07-24T10:56:20;-19115.38;;;32.94;40.06
60583;BME280;46415;47.536;19.066;2023-07-24T10:59:22;-19121.28;;;33.16;39.86
60583;BME280;46415;47.536;19.066;2023-07-24T11:02:24;-19129.44;;;33.47;38.24
60583;BME280;46415;47.536;19.066;2023-07-24T11:05:27;-19130.09;;;33.50;37.34
60583;BME280;46415;47.536;19.066;2023-07-24T11:08:30;-19134.25;;;33.66;37.40
60583;BME280;46415;47.536;19.066;2023-07-24T11:11:34;-19136.94;;;33.76;36.76
60583;BME280;46415;47.536;19.066;2023-07-24T11:14:47;-19144.16;;;34.03;36.41
60583;BME280;46415;47.536;19.066;2023-07-24T11:17:50;-19150.28;;;34.26;35.95
60583;BME280;46415;47.536;19.066;2023-07-24T11:20:54;-19141.88;;;33.94;36.31
60583;BME280;46415;47.536;19.066;2023-07-24T11:23:57;-19148.03;;;34.18;36.61
60583;BME280;46415;47.536;19.066;2023-07-24T11:27:00;-19143.47;;;34.00;35.27
60583;BME280;46415;47.536;19.066;2023-07-24T11:30:02;-19136.94;;;33.76;35.88
60583;BME280;46415;47.536;19.066;2023-07-24T11:33:06;-19135.59;;;33.71;36.35
60583;BME280;46415;47.536;19.066;2023-07-24T11:36:10;-19143.47;;;34.00;37.09
60583;BME280;46415;47.536;19.066;2023-07-24T11:39:13;-19150.28;;;34.26;35.02
60583;BME280;46415;47.536;19.066;2023-07-24T11:42:18;-19151.63;;;34.31;35.62
60583;BME280;46415;47.536;19.066;2023-07-24T11:45:20;-19166.59;;;34.88;35.09
60583;BME280;46415;47.536;19.066;2023-07-24T11:48:24;-19170.47;;;35.03;35.14
60583;BME280;46415;47.536;19.066;2023-07-24T11:51:26;-19166.59;;;34.88;35.08
60583;BME280;46415;47.536;19.066;2023-07-24T11:54:34;-19171.94;;;35.08;34.66
60583;BME280;46415;47.536;19.066;2023-07-24T11:57:37;-19165.00;;;34.82;35.13
60583;BME280;46415;47.536;19.066;2023-07-24T12:00:40;-19161.66;;;34.69;34.79
60583;BME280;46415;47.536;19.066;2023-07-24T12:03:42;-19168.72;;;34.96;35.02
60583;BME280;46415;47.536;19.066;2023-07-24T12:06:45;-19172.88;;;35.12;34.71
60583;BME280;46415;47.536;19.066;2023-07-24T12:09:51;-19174.19;;;35.17;34.38
60583;BME280;46415;47.536;19.066;2023-07-24T12:12:54;-19171.00;;;35.05;33.55
60583;BME280;46415;47.536;19.066;2023-07-24T12:16:00;-19169.81;;;35.00;32.38
60583;BME280;46415;47.536;19.066;2023-07-24T12:19:02;-19178.09;;;35.32;32.41
60583;BME280;46415;47.536;19.066;2023-07-24T12:22:05;-19178.47;;;35.33;32.89
60583;BME280;46415;47.536;19.066;2023-07-24T12:25:09;-19178.47;;;35.33;32.85
60583;BME280;46415;47.536;19.066;2023-07-24T12:28:12;-19177.28;;;35.29;32.66
60583;BME280;46415;47.536;19.066;2023-07-24T12:31:14;-19183.16;;;35.51;33.14
60583;BME280;46415;47.536;19.066;2023-07-24T12:34:17;-19184.22;;;35.55;33.68
60583;BME280;46415;47.536;19.066;2023-07-24T12:37:20;-19183.94;;;35.54;34.06
60583;BME280;46415;47.536;19.066;2023-07-24T12:40:23;-19184.63;;;35.56;33.69
60583;BME280;46415;47.536;19.066;2023-07-24T12:43:25;-19184.47;;;35.56;33.01
60583;BME280;46415;47.536;19.066;2023-07-24T12:46:28;-19189.81;;;35.76;33.68
60583;BME280;46415;47.536;19.066;2023-07-24T12:49:31;-19194.50;;;35.94;33.69
60583;BME280;46415;47.536;19.066;2023-07-24T12:52:33;-19197.16;;;36.04;33.05
60583;BME280;46415;47.536;19.066;2023-07-24T12:55:36;-19191.03;;;35.81;33.02
60583;BME280;46415;47.536;19.066;2023-07-24T12:58:38;-19188.50;;;35.71;33.43
60583;BME280;46415;47.536;19.066;2023-07-24T13:01:41;-19185.28;;;35.59;33.85
60583;BME280;46415;47.536;19.066;2023-07-24T13:04:44;-19184.34;;;35.55;34.64
60583;BME280;46415;47.536;19.066;2023-07-24T13:07:46;-19189.56;;;35.75;34.34
60583;BME280;46415;47.536;19.066;2023-07-24T13:10:49;-19186.63;;;35.64;34.41
60583;BME280;46415;47.536;19.066;2023-07-24T13:13:51;-19183.03;;;35.50;35.36
60583;BME280;46415;47.536;19.066;2023-07-24T13:16:54;-19181.41;;;35.44;33.98
60583;BME280;46415;47.536;19.066;2023-07-24T13:19:57;-19175.94;;;35.24;35.33
60583;BME280;46415;47.536;19.066;2023-07-24T13:22:59;-19175.94;;;35.24;34.68
60583;BME280;46415;47.536;19.066;2023-07-24T13:26:02;-19172.22;;;35.09;34.74
60583;BME280;46415;47.536;19.066;2023-07-24T13:29:05;-19170.19;;;35.02;35.08
60583;BME280;46415;47.536;19.066;2023-07-24T13:32:07;-19173.53;;;35.14;36.37
60583;BME280;46415;47.536;19.066;2023-07-24T13:35:10;-19171.81;;;35.08;36.85
60583;BME280;46415;47.536;19.066;2023-07-24T13:38:12;-19167.13;;;34.90;36.74
60583;BME280;46415;47.536;19.066;2023-07-24T13:41:16;-19166.59;;;34.88;35.13
60583;BME280;46415;47.536;19.066;2023-07-24T13:44:18;-19170.47;;;35.03;35.15
60583;BME280;46415;47.536;19.066;2023-07-24T13:47:21;-19175.53;;;35.22;34.64
60583;BME280;46415;47.536;19.066;2023-07-24T13:50:24;-19172.47;;;35.10;34.73
60583;BME280;46415;47.536;19.066;2023-07-24T13:53:29;-19175.00;;;35.20;35.56
60583;BME280;46415;47.536;19.066;2023-07-24T13:56:31;-19177.53;;;35.30;35.37
60583;BME280;46415;47.536;19.066;2023-07-24T13:59:37;-19181.69;;;35.45;34.34
60583;BME280;46415;47.536;19.066;2023-07-24T14:02:42;-19188.50;;;35.71;34.40
60583;BME280;46415;47.536;19.066;2023-07-24T14:05:45;-19183.81;;;35.53;34.40
60583;BME280;46415;47.536;19.066;2023-07-24T14:08:48;-19174.34;;;35.17;34.98
60583;BME280;46415;47.536;19.066;2023-07-24T14:11:50;-19172.59;;;35.11;35.40
60583;BME280;46415;47.536;19.066;2023-07-24T14:14:53;-19168.19;;;34.94;34.98
60583;BME280;46415;47.536;19.066;2023-07-24T14:17:55;-19165.78;;;34.85;35.07
60583;BME280;46415;47.536;19.066;2023-07-24T14:20:58;-19167.66;;;34.92;35.04
60583;BME280;46415;47.536;19.066;2023-07-24T14:24:02;-19160.44;;;34.65;33.98
60583;BME280;46415;47.536;19.066;2023-07-24T14:27:04;-19160.19;;;34.64;34.25
60583;BME280;46415;47.536;19.066;2023-07-24T14:30:08;-19151.63;;;34.31;34.62
60583;BME280;46415;47.536;19.066;2023-07-24T14:33:12;-19157.78;;;34.55;34.13
60583;BME280;46415;47.536;19.066;2023-07-24T14:36:14;-19167.00;;;34.90;33.64
60583;BME280;46415;47.536;19.066;2023-07-24T14:39:17;-19187.97;;;35.69;33.87
60583;BME280;46415;47.536;19.066;2023-07-24T14:42:20;-19210.22;;;36.54;32.84
60583;BME280;46415;47.536;19.066;2023-07-24T14:45:22;-19216.22;;;36.76;32.76
60583;BME280;46415;47.536;19.066;2023-07-24T14:48:25;-19205.56;;;36.36;33.19
60583;BME280;46415;47.536;19.066;2023-07-24T14:51:27;-19208.47;;;36.47;32.51
60583;BME280;46415;47.536;19.066;2023-07-24T14:54:30;-19207.81;;;36.45;32.09
60583;BME280;46415;47.536;19.066;2023-07-24T14:57:32;-19199.41;;;36.13;32.49
60583;BME280;46415;47.536;19.066;2023-07-24T15:00:35;-19199.28;;;36.12;31.86
60583;BME280;46415;47.536;19.066;2023-07-24T15:03:37;-19205.03;;;36.34;30.92
60583;BME280;46415;47.536;19.066;2023-07-24T15:06:40;-19216.22;;;36.76;28.91
60583;BME280;46415;47.536;19.066;2023-07-24T15:09:43;-19220.47;;;36.93;28.27
60583;BME280;46415;47.536;19.066;2023-07-24T15:12:45;-19239.66;;;37.66;27.75
60583;BME280;46415;47.536;19.066;2023-07-24T15:15:48;-19226.47;;;37.15;29.05
60583;BME280;46415;47.536;19.066;2023-07-24T15:18:50;-19196.50;;;36.01;30.82
60583;BME280;46415;47.536;19.066;2023-07-24T15:21:53;-19186.34;;;35.63;31.14
60583;BME280;46415;47.536;19.066;2023-07-24T15:24:56;-19210.09;;;36.53;30.33
60583;BME280;46415;47.536;19.066;2023-07-24T15:27:58;-19263.19;;;38.55;27.52
60583;BME280;46415;47.536;19.066;2023-07-24T15:31:01;-19339.72;;;41.47;23.82
60583;BME280;46415;47.536;19.066;2023-07-24T15:34:03;-19389.81;;;43.39;21.94
60583;BME280;46415;47.536;19.066;2023-07-24T15:37:07;-19384.94;;;43.21;22.08
60583;BME280;46415;47.536;19.066;2023-07-24T15:40:12;-19358.12;;;42.18;22.48
60583;BME280;46415;47.536;19.066;2023-07-24T15:43:15;-19346.75;;;41.74;22.58
60583;BME280;46415;47.536;19.066;2023-07-24T15:46:18;-19333.91;;;41.25;22.92